sensor_id;sensor_type;location;lat;lon;timestamp;P1;durP1;ratioP1;P2;durP2;ratioP2
17631;SDS011;8934;51.194;17.150;2022-08-19T00:01:42;10.13;;;9.18;;
17631;SDS011;8934;51.194;17.150;2022-08-19T00:04:38;10.30;;;9.57;;
17631;SDS011;8934;51.194;17.150;2022-08-19T00:07:27;9.95;;;9.05;;
17631;SDS011;8934;51.194;17.150;2022-08-19T00:10:15;11.05;;;10.15;;
17631;SDS011;8934;51.194;17.150;2022-08-19T00:13:04;11.40;;;10.55;;
17631;SDS011;8934;51.194;17.150;2022-08-19T00:15:52;11.82;;;10.77;;
17631;SDS011;8934;51.194;17.150;2022-08-19T00:18:40;11.48;;;10.48;;
17631;SDS011;8934;51.194;17.150;2022-08-19T00:21:27;12.20;;;11.30;;
17631;SDS011;8934;51.194;17.150;2022-08-19T00:24:17;12.45;;;11.38;;
17631;SDS011;8934;51.194;17.150;2022-08-19T00:27:05;12.02;;;11.02;;
17631;SDS011;8934;51.194;17.150;2022-08-19T00:30:12;12.05;;;10.95;;
17631;SDS011;8934;51.194;17.150;2022-08-19T00:33:00;12.13;;;11.02;;
17631;SDS011;8934;51.194;17.150;2022-08-19T00:35:49;11.35;;;10.20;;
17631;SDS011;8934;51.194;17.150;2022-08-19T00:38:41;12.00;;;11.00;;
17631;SDS011;8934;51.194;17.150;2022-08-19T00:41:30;11.00;;;10.15;;
17631;SDS011;8934;51.194;17.150;2022-08-19T00:44:19;10.45;;;9.75;;
17631;SDS011;8934;51.194;17.150;2022-08-19T00:47:12;12.80;;;11.50;;
17631;SDS011;8934;51.194;17.150;2022-08-19T00:50:00;11.82;;;10.93;;
17631;SDS011;8934;51.194;17.150;2022-08-19T00:52:49;11.90;;;10.82;;
17631;SDS011;8934;51.194;17.150;2022-08-19T00:55:38;10.85;;;10.00;;
17631;SDS011;8934;51.194;17.150;2022-08-19T00:58:29;10.93;;;10.00;;
17631;SDS011;8934;51.194;17.150;2022-08-19T01:01:19;11.13;;;10.32;;
17631;SDS011;8934;51.194;17.150;2022-08-19T01:04:07;11.48;;;10.38;;
17631;SDS011;8934;51.194;17.150;2022-08-19T01:06:55;11.15;;;10.07;;
17631;SDS011;8934;51.194;17.150;2022-08-19T01:09:43;11.60;;;10.40;;
17631;SDS011;8934;51.194;17.150;2022-08-19T01:12:30;10.73;;;9.68;;
17631;SDS011;8934;51.194;17.150;2022-08-19T01:15:22;10.95;;;9.93;;
17631;SDS011;8934;51.194;17.150;2022-08-19T01:18:14;10.45;;;9.63;;
17631;SDS011;8934;51.194;17.150;2022-08-19T01:21:05;10.68;;;9.88;;
17631;SDS011;8934;51.194;17.150;2022-08-19T01:23:59;10.85;;;9.95;;
17631;SDS011;8934;51.194;17.150;2022-08-19T01:26:47;11.05;;;10.25;;
17631;SDS011;8934;51.194;17.150;2022-08-19T01:29:36;10.48;;;9.68;;
17631;SDS011;8934;51.194;17.150;2022-08-19T01:32:28;11.88;;;10.88;;
17631;SDS011;8934;51.194;17.150;2022-08-19T01:35:19;11.82;;;10.80;;
17631;SDS011;8934;51.194;17.150;2022-08-19T01:38:10;11.02;;;10.23;;
17631;SDS011;8934;51.194;17.150;2022-08-19T01:41:10;10.93;;;10.05;;
17631;SDS011;8934;51.194;17.150;2022-08-19T01:43:58;11.15;;;10.27;;
17631;SDS011;8934;51.194;17.150;2022-08-19T01:47:03;10.93;;;10.13;;
17631;SDS011;8934;51.194;17.150;2022-08-19T01:49:51;10.50;;;9.40;;
17631;SDS011;8934;51.194;17.150;2022-08-19T01:52:40;11.18;;;10.20;;
17631;SDS011;8934;51.194;17.150;2022-08-19T01:55:29;10.98;;;9.98;;
17631;SDS011;8934;51.194;17.150;2022-08-19T01:58:19;10.73;;;9.73;;
17631;SDS011;8934;51.194;17.150;2022-08-19T02:01:15;11.63;;;10.70;;
17631;SDS011;8934;51.194;17.150;2022-08-19T02:04:03;11.05;;;10.05;;
17631;SDS011;8934;51.194;17.150;2022-08-19T02:06:51;11.45;;;10.50;;
17631;SDS011;8934;51.194;17.150;2022-08-19T02:09:39;11.05;;;10.07;;
17631;SDS011;8934;51.194;17.150;2022-08-19T02:12:27;11.15;;;10.25;;
17631;SDS011;8934;51.194;17.150;2022-08-19T02:15:17;11.30;;;10.20;;
17631;SDS011;8934;51.194;17.150;2022-08-19T02:18:06;10.23;;;9.52;;
17631;SDS011;8934;51.194;17.150;2022-08-19T02:20:54;11.38;;;10.55;;
17631;SDS011;8934;51.194;17.150;2022-08-19T02:23:42;11.32;;;10.25;;
17631;SDS011;8934;51.194;17.150;2022-08-19T02:26:31;10.95;;;10.13;;
17631;SDS011;8934;51.194;17.150;2022-08-19T02:29:19;11.07;;;10.27;;
17631;SDS011;8934;51.194;17.150;2022-08-19T02:32:08;12.02;;;10.82;;
17631;SDS011;8934;51.194;17.150;2022-08-19T02:34:56;10.52;;;9.80;;
17631;SDS011;8934;51.194;17.150;2022-08-19T02:37:43;11.55;;;10.60;;
17631;SDS011;8934;51.194;17.150;2022-08-19T02:40:49;12.20;;;11.20;;
17631;SDS011;8934;51.194;17.150;2022-08-19T02:43:38;11.90;;;10.75;;
17631;SDS011;8934;51.194;17.150;2022-08-19T02:46:46;11.60;;;10.70;;
17631;SDS011;8934;51.194;17.150;2022-08-19T02:49:38;10.65;;;9.85;;
17631;SDS011;8934;51.194;17.150;2022-08-19T02:52:26;12.82;;;11.70;;
17631;SDS011;8934;51.194;17.150;2022-08-19T02:55:14;12.60;;;11.48;;
17631;SDS011;8934;51.194;17.150;2022-08-19T02:58:02;12.48;;;11.38;;
17631;SDS011;8934;51.194;17.150;2022-08-19T03:00:53;12.77;;;11.68;;
17631;SDS011;8934;51.194;17.150;2022-08-19T03:03:43;11.90;;;11.00;;
17631;SDS011;8934;51.194;17.150;2022-08-19T03:06:33;12.88;;;11.57;;
17631;SDS011;8934;51.194;17.150;2022-08-19T03:09:23;12.40;;;11.40;;
17631;SDS011;8934;51.194;17.150;2022-08-19T03:12:11;12.07;;;11.07;;
17631;SDS011;8934;51.194;17.150;2022-08-19T03:14:59;12.20;;;11.20;;
17631;SDS011;8934;51.194;17.150;2022-08-19T03:17:46;12.13;;;11.23;;
17631;SDS011;8934;51.194;17.150;2022-08-19T03:20:39;12.48;;;11.57;;
17631;SDS011;8934;51.194;17.150;2022-08-19T03:23:29;13.02;;;12.13;;
17631;SDS011;8934;51.194;17.150;2022-08-19T03:26:17;13.15;;;12.10;;
17631;SDS011;8934;51.194;17.150;2022-08-19T03:29:04;13.27;;;12.18;;
17631;SDS011;8934;51.194;17.150;2022-08-19T03:31:54;13.82;;;12.43;;
17631;SDS011;8934;51.194;17.150;2022-08-19T03:34:42;13.30;;;12.20;;
17631;SDS011;8934;51.194;17.150;2022-08-19T03:37:30;12.88;;;11.88;;
17631;SDS011;8934;51.194;17.150;2022-08-19T03:40:20;12.13;;;11.23;;
17631;SDS011;8934;51.194;17.150;2022-08-19T03:43:07;12.73;;;11.82;;
17631;SDS011;8934;51.194;17.150;2022-08-19T03:46:02;12.98;;;11.98;;
17631;SDS011;8934;51.194;17.150;2022-08-19T03:48:53;13.52;;;12.60;;
17631;SDS011;8934;51.194;17.150;2022-08-19T03:51:42;13.73;;;11.68;;
17631;SDS011;8934;51.194;17.150;2022-08-19T03:54:30;11.85;;;10.95;;
17631;SDS011;8934;51.194;17.150;2022-08-19T03:57:20;13.00;;;12.00;;
17631;SDS011;8934;51.194;17.150;2022-08-19T04:00:17;13.50;;;12.40;;
17631;SDS011;8934;51.194;17.150;2022-08-19T04:03:04;14.00;;;12.70;;
17631;SDS011;8934;51.194;17.150;2022-08-19T04:05:52;13.68;;;12.63;;
17631;SDS011;8934;51.194;17.150;2022-08-19T04:08:40;15.30;;;14.00;;
17631;SDS011;8934;51.194;17.150;2022-08-19T04:11:29;14.23;;;12.70;;
17631;SDS011;8934;51.194;17.150;2022-08-19T04:14:31;13.55;;;12.45;;
17631;SDS011;8934;51.194;17.150;2022-08-19T04:17:20;13.85;;;12.75;;
17631;SDS011;8934;51.194;17.150;2022-08-19T04:20:08;14.35;;;13.25;;
17631;SDS011;8934;51.194;17.150;2022-08-19T04:22:56;14.70;;;13.30;;
17631;SDS011;8934;51.194;17.150;2022-08-19T04:25:44;14.70;;;13.60;;
17631;SDS011;8934;51.194;17.150;2022-08-19T04:28:32;13.98;;;12.65;;
17631;SDS011;8934;51.194;17.150;2022-08-19T04:31:25;13.20;;;12.20;;
17631;SDS011;8934;51.194;17.150;2022-08-19T04:34:15;14.13;;;12.93;;
17631;SDS011;8934;51.194;17.150;2022-08-19T04:37:05;15.35;;;13.88;;
17631;SDS011;8934;51.194;17.150;2022-08-19T04:39:58;13.50;;;12.48;;
17631;SDS011;8934;51.194;17.150;2022-08-19T04:43:04;13.90;;;12.57;;
17631;SDS011;8934;51.194;17.150;2022-08-19T04:45:51;14.68;;;13.48;;
17631;SDS011;8934;51.194;17.150;2022-08-19T04:48:47;19.40;;;17.70;;
17631;SDS011;8934;51.194;17.150;2022-08-19T04:51:35;17.08;;;15.68;;
17631;SDS011;8934;51.194;17.150;2022-08-19T04:54:23;20.42;;;18.63;;
17631;SDS011;8934;51.194;17.150;2022-08-19T04:57:23;18.33;;;16.90;;
17631;SDS011;8934;51.194;17.150;2022-08-19T05:00:12;16.95;;;15.48;;
17631;SDS011;8934;51.194;17.150;2022-08-19T05:03:00;16.15;;;14.77;;
17631;SDS011;8934;51.194;17.150;2022-08-19T05:05:54;16.10;;;14.63;;
17631;SDS011;8934;51.194;17.150;2022-08-19T05:08:42;16.27;;;14.85;;
17631;SDS011;8934;51.194;17.150;2022-08-19T05:11:32;15.40;;;14.00;;
17631;SDS011;8934;51.194;17.150;2022-08-19T05:14:21;15.60;;;14.02;;
17631;SDS011;8934;51.194;17.150;2022-08-19T05:17:09;16.20;;;14.70;;
17631;SDS011;8934;51.194;17.150;2022-08-19T05:20:13;15.65;;;14.25;;
17631;SDS011;8934;51.194;17.150;2022-08-19T05:23:20;15.73;;;13.40;;
17631;SDS011;8934;51.194;17.150;2022-08-19T05:26:08;15.77;;;14.27;;
17631;SDS011;8934;51.194;17.150;2022-08-19T05:28:57;16.75;;;14.95;;
17631;SDS011;8934;51.194;17.150;2022-08-19T05:31:45;15.80;;;14.40;;
17631;SDS011;8934;51.194;17.150;2022-08-19T05:34:35;16.00;;;14.70;;
17631;SDS011;8934;51.194;17.150;2022-08-19T05:37:24;16.50;;;15.00;;
17631;SDS011;8934;51.194;17.150;2022-08-19T05:40:14;16.63;;;15.05;;
17631;SDS011;8934;51.194;17.150;2022-08-19T05:43:02;15.85;;;14.35;;
17631;SDS011;8934;51.194;17.150;2022-08-19T05:45:51;16.80;;;15.18;;
17631;SDS011;8934;51.194;17.150;2022-08-19T05:48:39;17.35;;;15.63;;
17631;SDS011;8934;51.194;17.150;2022-08-19T05:51:27;16.48;;;14.77;;
17631;SDS011;8934;51.194;17.150;2022-08-19T05:54:15;16.48;;;15.07;;
17631;SDS011;8934;51.194;17.150;2022-08-19T05:57:04;16.23;;;14.93;;
17631;SDS011;8934;51.194;17.150;2022-08-19T05:59:53;15.65;;;14.35;;
17631;SDS011;8934;51.194;17.150;2022-08-19T06:02:43;16.15;;;14.55;;
17631;SDS011;8934;51.194;17.150;2022-08-19T06:05:31;17.80;;;16.17;;
17631;SDS011;8934;51.194;17.150;2022-08-19T06:08:37;16.90;;;15.50;;
17631;SDS011;8934;51.194;17.150;2022-08-19T06:11:31;15.60;;;14.40;;
17631;SDS011;8934;51.194;17.150;2022-08-19T06:14:24;17.10;;;15.52;;
17631;SDS011;8934;51.194;17.150;2022-08-19T06:17:13;17.23;;;15.68;;
17631;SDS011;8934;51.194;17.150;2022-08-19T06:20:03;18.00;;;16.13;;
17631;SDS011;8934;51.194;17.150;2022-08-19T06:22:52;16.70;;;15.05;;
17631;SDS011;8934;51.194;17.150;2022-08-19T06:25:39;17.15;;;15.35;;
17631;SDS011;8934;51.194;17.150;2022-08-19T06:28:27;17.33;;;15.60;;
17631;SDS011;8934;51.194;17.150;2022-08-19T06:31:17;16.63;;;15.13;;
17631;SDS011;8934;51.194;17.150;2022-08-19T06:34:06;17.10;;;15.50;;
17631;SDS011;8934;51.194;17.150;2022-08-19T06:36:54;16.65;;;15.23;;
17631;SDS011;8934;51.194;17.150;2022-08-19T06:39:45;16.70;;;15.15;;
17631;SDS011;8934;51.194;17.150;2022-08-19T06:42:33;15.88;;;14.48;;
17631;SDS011;8934;51.194;17.150;2022-08-19T06:45:21;16.63;;;15.02;;
17631;SDS011;8934;51.194;17.150;2022-08-19T06:48:25;15.52;;;14.25;;
17631;SDS011;8934;51.194;17.150;2022-08-19T06:51:14;16.52;;;15.15;;
17631;SDS011;8934;51.194;17.150;2022-08-19T06:54:04;15.77;;;14.45;;
17631;SDS011;8934;51.194;17.150;2022-08-19T06:57:05;15.77;;;14.48;;
17631;SDS011;8934;51.194;17.150;2022-08-19T06:59:55;16.83;;;15.02;;
17631;SDS011;8934;51.194;17.150;2022-08-19T07:02:43;16.30;;;14.85;;
17631;SDS011;8934;51.194;17.150;2022-08-19T07:05:42;17.23;;;15.57;;
17631;SDS011;8934;51.194;17.150;2022-08-19T07:08:31;15.98;;;14.52;;
17631;SDS011;8934;51.194;17.150;2022-08-19T07:11:20;15.98;;;14.48;;
17631;SDS011;8934;51.194;17.150;2022-08-19T07:14:08;14.73;;;13.52;;
17631;SDS011;8934;51.194;17.150;2022-08-19T07:17:04;14.50;;;13.15;;
17631;SDS011;8934;51.194;17.150;2022-08-19T07:19:55;15.43;;;14.13;;
17631;SDS011;8934;51.194;17.150;2022-08-19T07:22:51;13.38;;;12.18;;
17631;SDS011;8934;51.194;17.150;2022-08-19T07:25:40;14.15;;;12.82;;
17631;SDS011;8934;51.194;17.150;2022-08-19T07:28:28;14.57;;;13.18;;
17631;SDS011;8934;51.194;17.150;2022-08-19T07:31:17;14.25;;;13.13;;
17631;SDS011;8934;51.194;17.150;2022-08-19T07:34:10;13.05;;;12.05;;
17631;SDS011;8934;51.194;17.150;2022-08-19T07:37:02;12.82;;;11.70;;
17631;SDS011;8934;51.194;17.150;2022-08-19T07:39:52;13.82;;;12.60;;
17631;SDS011;8934;51.194;17.150;2022-08-19T07:42:40;13.30;;;12.23;;
17631;SDS011;8934;51.194;17.150;2022-08-19T07:45:29;14.10;;;12.82;;
17631;SDS011;8934;51.194;17.150;2022-08-19T07:48:18;13.18;;;12.05;;
17631;SDS011;8934;51.194;17.150;2022-08-19T07:51:08;12.60;;;11.45;;
17631;SDS011;8934;51.194;17.150;2022-08-19T07:53:59;12.50;;;11.40;;
17631;SDS011;8934;51.194;17.150;2022-08-19T07:56:48;12.93;;;11.65;;
17631;SDS011;8934;51.194;17.150;2022-08-19T07:59:37;12.32;;;11.07;;
17631;SDS011;8934;51.194;17.150;2022-08-19T08:02:25;12.23;;;10.98;;
17631;SDS011;8934;51.194;17.150;2022-08-19T08:05:12;13.48;;;11.95;;
17631;SDS011;8934;51.194;17.150;2022-08-19T08:08:20;12.40;;;11.23;;
17631;SDS011;8934;51.194;17.150;2022-08-19T08:11:32;14.00;;;11.48;;
17631;SDS011;8934;51.194;17.150;2022-08-19T08:14:24;11.60;;;10.60;;
17631;SDS011;8934;51.194;17.150;2022-08-19T08:17:20;17.33;;;11.43;;
17631;SDS011;8934;51.194;17.150;2022-08-19T08:20:31;12.73;;;11.68;;
17631;SDS011;8934;51.194;17.150;2022-08-19T08:23:20;12.43;;;11.30;;
17631;SDS011;8934;51.194;17.150;2022-08-19T08:26:12;12.70;;;11.70;;
17631;SDS011;8934;51.194;17.150;2022-08-19T08:29:01;12.35;;;11.27;;
17631;SDS011;8934;51.194;17.150;2022-08-19T08:31:59;11.85;;;10.85;;
17631;SDS011;8934;51.194;17.150;2022-08-19T08:34:47;11.45;;;10.38;;
17631;SDS011;8934;51.194;17.150;2022-08-19T08:37:37;10.95;;;9.98;;
17631;SDS011;8934;51.194;17.150;2022-08-19T08:40:27;12.32;;;10.35;;
17631;SDS011;8934;51.194;17.150;2022-08-19T08:43:21;11.60;;;10.48;;
17631;SDS011;8934;51.194;17.150;2022-08-19T08:46:19;10.98;;;9.85;;
17631;SDS011;8934;51.194;17.150;2022-08-19T08:49:22;10.52;;;9.68;;
17631;SDS011;8934;51.194;17.150;2022-08-19T08:52:15;12.05;;;11.05;;
17631;SDS011;8934;51.194;17.150;2022-08-19T08:55:08;10.57;;;9.65;;
17631;SDS011;8934;51.194;17.150;2022-08-19T08:58:02;12.32;;;10.02;;
17631;SDS011;8934;51.194;17.150;2022-08-19T09:00:52;12.55;;;11.60;;
17631;SDS011;8934;51.194;17.150;2022-08-19T09:03:40;11.10;;;10.05;;
17631;SDS011;8934;51.194;17.150;2022-08-19T09:06:35;12.10;;;10.93;;
17631;SDS011;8934;51.194;17.150;2022-08-19T09:09:27;13.75;;;11.57;;
17631;SDS011;8934;51.194;17.150;2022-08-19T09:12:19;10.48;;;9.65;;
17631;SDS011;8934;51.194;17.150;2022-08-19T09:15:14;9.70;;;9.00;;
17631;SDS011;8934;51.194;17.150;2022-08-19T09:18:17;10.35;;;9.35;;
17631;SDS011;8934;51.194;17.150;2022-08-19T09:21:06;10.50;;;9.57;;
17631;SDS011;8934;51.194;17.150;2022-08-19T09:23:56;10.93;;;9.70;;
17631;SDS011;8934;51.194;17.150;2022-08-19T09:26:45;10.20;;;9.32;;
17631;SDS011;8934;51.194;17.150;2022-08-19T09:29:37;10.88;;;10.07;;
17631;SDS011;8934;51.194;17.150;2022-08-19T09:32:25;10.50;;;9.38;;
17631;SDS011;8934;51.194;17.150;2022-08-19T09:35:13;10.90;;;9.95;;
17631;SDS011;8934;51.194;17.150;2022-08-19T09:38:02;10.48;;;9.30;;
17631;SDS011;8934;51.194;17.150;2022-08-19T09:40:51;10.30;;;9.40;;
17631;SDS011;8934;51.194;17.150;2022-08-19T09:43:39;11.50;;;10.60;;
17631;SDS011;8934;51.194;17.150;2022-08-19T09:46:33;10.52;;;9.57;;
17631;SDS011;8934;51.194;17.150;2022-08-19T09:49:21;10.88;;;9.98;;
17631;SDS011;8934;51.194;17.150;2022-08-19T09:52:09;10.13;;;9.40;;
17631;SDS011;8934;51.194;17.150;2022-08-19T09:54:58;11.48;;;10.38;;
17631;SDS011;8934;51.194;17.150;2022-08-19T09:57:54;11.60;;;10.50;;
17631;SDS011;8934;51.194;17.150;2022-08-19T10:00:42;11.20;;;10.23;;
17631;SDS011;8934;51.194;17.150;2022-08-19T10:03:36;10.02;;;9.15;;
17631;SDS011;8934;51.194;17.150;2022-08-19T10:06:25;9.95;;;9.23;;
17631;SDS011;8934;51.194;17.150;2022-08-19T10:09:31;10.57;;;9.48;;
17631;SDS011;8934;51.194;17.150;2022-08-19T10:12:20;10.55;;;9.52;;
17631;SDS011;8934;51.194;17.150;2022-08-19T10:15:13;10.00;;;9.20;;
17631;SDS011;8934;51.194;17.150;2022-08-19T10:18:01;10.02;;;9.02;;
17631;SDS011;8934;51.194;17.150;2022-08-19T10:20:50;10.52;;;9.38;;
17631;SDS011;8934;51.194;17.150;2022-08-19T10:23:40;8.68;;;7.93;;
17631;SDS011;8934;51.194;17.150;2022-08-19T10:26:31;9.00;;;8.13;;
17631;SDS011;8934;51.194;17.150;2022-08-19T10:29:23;9.02;;;8.13;;
17631;SDS011;8934;51.194;17.150;2022-08-19T10:32:19;8.68;;;7.90;;
17631;SDS011;8934;51.194;17.150;2022-08-19T10:35:18;8.88;;;7.50;;
17631;SDS011;8934;51.194;17.150;2022-08-19T10:38:08;8.48;;;7.80;;
17631;SDS011;8934;51.194;17.150;2022-08-19T10:40:56;8.70;;;7.90;;
17631;SDS011;8934;51.194;17.150;2022-08-19T10:43:44;8.80;;;7.80;;
17631;SDS011;8934;51.194;17.150;2022-08-19T10:46:32;8.60;;;7.78;;
17631;SDS011;8934;51.194;17.150;2022-08-19T10:49:24;8.48;;;7.85;;
17631;SDS011;8934;51.194;17.150;2022-08-19T10:52:13;8.02;;;7.30;;
17631;SDS011;8934;51.194;17.150;2022-08-19T10:55:19;7.68;;;7.05;;
17631;SDS011;8934;51.194;17.150;2022-08-19T10:58:28;8.00;;;7.30;;
17631;SDS011;8934;51.194;17.150;2022-08-19T11:01:16;7.85;;;7.20;;
17631;SDS011;8934;51.194;17.150;2022-08-19T11:04:04;8.25;;;7.05;;
17631;SDS011;8934;51.194;17.150;2022-08-19T11:06:56;7.28;;;6.65;;
17631;SDS011;8934;51.194;17.150;2022-08-19T11:09:43;7.65;;;7.05;;
17631;SDS011;8934;51.194;17.150;2022-08-19T11:12:32;9.48;;;7.60;;
17631;SDS011;8934;51.194;17.150;2022-08-19T11:15:20;7.75;;;7.03;;
17631;SDS011;8934;51.194;17.150;2022-08-19T11:18:08;9.68;;;6.90;;
17631;SDS011;8934;51.194;17.150;2022-08-19T11:21:04;8.38;;;7.43;;
17631;SDS011;8934;51.194;17.150;2022-08-19T11:23:55;7.75;;;7.00;;
17631;SDS011;8934;51.194;17.150;2022-08-19T11:26:46;9.82;;;6.32;;
17631;SDS011;8934;51.194;17.150;2022-08-19T11:29:37;7.45;;;6.85;;
17631;SDS011;8934;51.194;17.150;2022-08-19T11:32:25;6.63;;;6.03;;
17631;SDS011;8934;51.194;17.150;2022-08-19T11:35:13;6.38;;;5.57;;
17631;SDS011;8934;51.194;17.150;2022-08-19T11:38:02;7.65;;;5.90;;
17631;SDS011;8934;51.194;17.150;2022-08-19T11:40:56;8.02;;;5.57;;
17631;SDS011;8934;51.194;17.150;2022-08-19T11:43:46;7.63;;;5.47;;
17631;SDS011;8934;51.194;17.150;2022-08-19T11:46:34;6.55;;;5.78;;
17631;SDS011;8934;51.194;17.150;2022-08-19T11:49:23;9.95;;;5.70;;
17631;SDS011;8934;51.194;17.150;2022-08-19T11:52:11;8.52;;;6.18;;
17631;SDS011;8934;51.194;17.150;2022-08-19T11:54:58;8.10;;;5.80;;
17631;SDS011;8934;51.194;17.150;2022-08-19T11:57:48;7.00;;;6.10;;
17631;SDS011;8934;51.194;17.150;2022-08-19T12:00:37;6.93;;;5.70;;
17631;SDS011;8934;51.194;17.150;2022-08-19T12:03:28;6.10;;;5.55;;
17631;SDS011;8934;51.194;17.150;2022-08-19T12:06:17;5.97;;;5.53;;
17631;SDS011;8934;51.194;17.150;2022-08-19T12:09:10;6.00;;;5.50;;
17631;SDS011;8934;51.194;17.150;2022-08-19T12:11:57;6.30;;;5.80;;
17631;SDS011;8934;51.194;17.150;2022-08-19T12:14:46;7.80;;;6.13;;
17631;SDS011;8934;51.194;17.150;2022-08-19T12:17:36;5.90;;;5.40;;
17631;SDS011;8934;51.194;17.150;2022-08-19T12:20:24;6.93;;;6.38;;
17631;SDS011;8934;51.194;17.150;2022-08-19T12:23:11;6.72;;;5.95;;
17631;SDS011;8934;51.194;17.150;2022-08-19T12:25:59;5.45;;;5.05;;
17631;SDS011;8934;51.194;17.150;2022-08-19T12:28:47;6.93;;;4.72;;
17631;SDS011;8934;51.194;17.150;2022-08-19T12:31:37;5.40;;;4.82;;
17631;SDS011;8934;51.194;17.150;2022-08-19T12:34:28;6.63;;;5.45;;
17631;SDS011;8934;51.194;17.150;2022-08-19T12:37:17;10.45;;;5.20;;
17631;SDS011;8934;51.194;17.150;2022-08-19T12:40:05;5.30;;;4.68;;
17631;SDS011;8934;51.194;17.150;2022-08-19T12:42:54;6.97;;;4.35;;
17631;SDS011;8934;51.194;17.150;2022-08-19T12:45:42;7.20;;;4.63;;
17631;SDS011;8934;51.194;17.150;2022-08-19T12:48:33;4.43;;;4.03;;
17631;SDS011;8934;51.194;17.150;2022-08-19T12:51:24;6.05;;;3.72;;
17631;SDS011;8934;51.194;17.150;2022-08-19T12:54:12;6.03;;;3.95;;
17631;SDS011;8934;51.194;17.150;2022-08-19T12:57:04;5.78;;;3.47;;
17631;SDS011;8934;51.194;17.150;2022-08-19T12:59:53;8.88;;;3.50;;
17631;SDS011;8934;51.194;17.150;2022-08-19T13:02:41;4.72;;;4.18;;
17631;SDS011;8934;51.194;17.150;2022-08-19T13:05:41;6.93;;;3.72;;
17631;SDS011;8934;51.194;17.150;2022-08-19T13:08:29;5.85;;;3.45;;
17631;SDS011;8934;51.194;17.150;2022-08-19T13:11:18;6.35;;;3.47;;
17631;SDS011;8934;51.194;17.150;2022-08-19T13:14:09;4.57;;;3.58;;
17631;SDS011;8934;51.194;17.150;2022-08-19T13:16:57;4.85;;;4.05;;
17631;SDS011;8934;51.194;17.150;2022-08-19T13:19:45;4.38;;;3.97;;
17631;SDS011;8934;51.194;17.150;2022-08-19T13:22:34;4.85;;;3.95;;
17631;SDS011;8934;51.194;17.150;2022-08-19T13:25:22;6.57;;;4.20;;
17631;SDS011;8934;51.194;17.150;2022-08-19T13:28:11;6.75;;;4.68;;
17631;SDS011;8934;51.194;17.150;2022-08-19T13:31:01;5.50;;;4.93;;
17631;SDS011;8934;51.194;17.150;2022-08-19T13:34:07;5.05;;;4.35;;
17631;SDS011;8934;51.194;17.150;2022-08-19T13:36:54;5.28;;;4.38;;
17631;SDS011;8934;51.194;17.150;2022-08-19T13:39:44;4.35;;;4.03;;
17631;SDS011;8934;51.194;17.150;2022-08-19T13:42:33;4.60;;;4.18;;
17631;SDS011;8934;51.194;17.150;2022-08-19T13:45:21;5.15;;;4.10;;
17631;SDS011;8934;51.194;17.150;2022-08-19T13:48:11;4.65;;;4.35;;
17631;SDS011;8934;51.194;17.150;2022-08-19T13:50:59;4.90;;;4.05;;
17631;SDS011;8934;51.194;17.150;2022-08-19T13:53:47;5.47;;;4.20;;
17631;SDS011;8934;51.194;17.150;2022-08-19T13:56:40;5.63;;;4.07;;
17631;SDS011;8934;51.194;17.150;2022-08-19T13:59:28;7.85;;;4.28;;
17631;SDS011;8934;51.194;17.150;2022-08-19T14:02:16;6.75;;;3.72;;
17631;SDS011;8934;51.194;17.150;2022-08-19T14:05:05;6.35;;;3.83;;
17631;SDS011;8934;51.194;17.150;2022-08-19T14:07:54;4.78;;;3.53;;
17631;SDS011;8934;51.194;17.150;2022-08-19T14:10:43;3.33;;;3.03;;
17631;SDS011;8934;51.194;17.150;2022-08-19T14:13:32;5.63;;;4.03;;
17631;SDS011;8934;51.194;17.150;2022-08-19T14:16:20;3.78;;;3.28;;
17631;SDS011;8934;51.194;17.150;2022-08-19T14:19:08;5.00;;;3.35;;
17631;SDS011;8934;51.194;17.150;2022-08-19T14:21:55;8.93;;;3.70;;
17631;SDS011;8934;51.194;17.150;2022-08-19T14:24:44;4.53;;;3.55;;
17631;SDS011;8934;51.194;17.150;2022-08-19T14:27:34;8.48;;;4.13;;
17631;SDS011;8934;51.194;17.150;2022-08-19T14:30:24;5.13;;;3.40;;
17631;SDS011;8934;51.194;17.150;2022-08-19T14:33:14;6.55;;;3.65;;
17631;SDS011;8934;51.194;17.150;2022-08-19T14:36:03;5.07;;;3.60;;
17631;SDS011;8934;51.194;17.150;2022-08-19T14:38:51;4.78;;;3.50;;
17631;SDS011;8934;51.194;17.150;2022-08-19T14:41:39;8.98;;;3.85;;
17631;SDS011;8934;51.194;17.150;2022-08-19T14:44:28;5.10;;;3.95;;
17631;SDS011;8934;51.194;17.150;2022-08-19T14:47:21;5.20;;;4.20;;
17631;SDS011;8934;51.194;17.150;2022-08-19T14:50:10;4.65;;;4.20;;
17631;SDS011;8934;51.194;17.150;2022-08-19T14:53:03;5.65;;;4.75;;
17631;SDS011;8934;51.194;17.150;2022-08-19T14:55:57;4.45;;;4.05;;
17631;SDS011;8934;51.194;17.150;2022-08-19T14:58:46;5.43;;;3.90;;
17631;SDS011;8934;51.194;17.150;2022-08-19T15:01:37;4.68;;;4.10;;
17631;SDS011;8934;51.194;17.150;2022-08-19T15:04:26;7.25;;;3.85;;
17631;SDS011;8934;51.194;17.150;2022-08-19T15:07:18;4.25;;;3.90;;
17631;SDS011;8934;51.194;17.150;2022-08-19T15:10:07;6.40;;;4.20;;
17631;SDS011;8934;51.194;17.150;2022-08-19T15:12:55;5.38;;;4.88;;
17631;SDS011;8934;51.194;17.150;2022-08-19T15:15:43;5.32;;;4.82;;
17631;SDS011;8934;51.194;17.150;2022-08-19T15:18:31;8.52;;;5.38;;
17631;SDS011;8934;51.194;17.150;2022-08-19T15:21:22;6.65;;;5.97;;
17631;SDS011;8934;51.194;17.150;2022-08-19T15:24:12;8.88;;;6.30;;
17631;SDS011;8934;51.194;17.150;2022-08-19T15:27:03;6.85;;;6.18;;
17631;SDS011;8934;51.194;17.150;2022-08-19T15:29:51;8.35;;;7.72;;
17631;SDS011;8934;51.194;17.150;2022-08-19T15:32:46;8.52;;;7.85;;
17631;SDS011;8934;51.194;17.150;2022-08-19T15:35:34;9.27;;;8.57;;
17631;SDS011;8934;51.194;17.150;2022-08-19T15:38:23;9.73;;;8.88;;
17631;SDS011;8934;51.194;17.150;2022-08-19T15:41:15;10.90;;;9.23;;
17631;SDS011;8934;51.194;17.150;2022-08-19T15:44:12;10.57;;;9.82;;
17631;SDS011;8934;51.194;17.150;2022-08-19T15:47:03;10.80;;;9.65;;
17631;SDS011;8934;51.194;17.150;2022-08-19T15:49:51;11.55;;;10.60;;
17631;SDS011;8934;51.194;17.150;2022-08-19T15:52:45;11.88;;;10.95;;
17631;SDS011;8934;51.194;17.150;2022-08-19T15:55:40;12.00;;;11.10;;
17631;SDS011;8934;51.194;17.150;2022-08-19T15:58:29;11.80;;;10.75;;
17631;SDS011;8934;51.194;17.150;2022-08-19T16:01:34;11.10;;;10.40;;
17631;SDS011;8934;51.194;17.150;2022-08-19T16:04:40;12.43;;;11.25;;
17631;SDS011;8934;51.194;17.150;2022-08-19T16:07:46;16.30;;;11.80;;
17631;SDS011;8934;51.194;17.150;2022-08-19T16:10:34;12.73;;;11.57;;
17631;SDS011;8934;51.194;17.150;2022-08-19T16:13:23;13.50;;;12.32;;
17631;SDS011;8934;51.194;17.150;2022-08-19T16:16:11;13.10;;;12.10;;
17631;SDS011;8934;51.194;17.150;2022-08-19T16:19:01;14.25;;;12.95;;
17631;SDS011;8934;51.194;17.150;2022-08-19T16:21:56;14.30;;;12.95;;
17631;SDS011;8934;51.194;17.150;2022-08-19T16:24:44;14.82;;;13.73;;
17631;SDS011;8934;51.194;17.150;2022-08-19T16:27:34;16.90;;;15.40;;
17631;SDS011;8934;51.194;17.150;2022-08-19T16:30:22;18.35;;;16.05;;
17631;SDS011;8934;51.194;17.150;2022-08-19T16:33:09;16.45;;;15.20;;
17631;SDS011;8934;51.194;17.150;2022-08-19T16:36:07;17.75;;;16.15;;
17631;SDS011;8934;51.194;17.150;2022-08-19T16:38:57;17.25;;;15.82;;
17631;SDS011;8934;51.194;17.150;2022-08-19T16:41:45;17.77;;;16.10;;
17631;SDS011;8934;51.194;17.150;2022-08-19T16:44:34;16.63;;;15.13;;
17631;SDS011;8934;51.194;17.150;2022-08-19T16:47:26;17.88;;;16.42;;
17631;SDS011;8934;51.194;17.150;2022-08-19T16:50:14;18.83;;;17.17;;